Time;durP1;ratioP1;P1;durP2;ratioP2;P2;SDS_P1;SDS_P2;PMS_P1;PMS_P2;Temp;Humidity;BMP_temperature;BMP_pressure;BME280_temperature;BME280_humidity;BME280_pressure;Samples;Min_cycle;Max_cycle;Signal;HPM_P1;HPM_P2
2022/10/10 00:00:41;;;;;;;7.55;4.90;;;;;;;17.02;100.00;101298.13;5010333;28;20056;-49
2022/10/10 00:03:08;;;;;;;10.63;5.50;;;;;;;16.85;100.00;101299.78;5017035;28;20034;-52
2022/10/10 00:05:33;;;;;;;9.82;5.20;;;;;;;16.89;100.00;101290.19;5011596;28;20113;-53
2022/10/10 00:07:59;;;;;;;11.02;5.18;;;;;;;16.95;100.00;101293.81;4999283;28;20026;-52
2022/10/10 00:10:25;;;;;;;11.97;5.77;;;;;;;16.92;100.00;101297.81;5009170;28;20122;-55
2022/10/10 00:12:51;;;;;;;14.05;5.00;;;;;;;16.71;100.00;101289.13;5012899;28;20346;-53
2022/10/10 00:15:16;;;;;;;10.68;4.65;;;;;;;16.94;100.00;101286.78;5002404;28;20043;-50
2022/10/10 00:17:42;;;;;;;11.37;5.07;;;;;;;16.63;100.00;101281.34;5005914;28;20036;-53
2022/10/10 00:20:10;;;;;;;16.17;6.25;;;;;;;16.67;100.00;101281.69;4998831;28;20363;-51
2022/10/10 00:22:36;;;;;;;11.70;5.53;;;;;;;16.76;100.00;101283.88;5014253;28;20037;-53
2022/10/10 00:25:03;;;;;;;7.75;4.80;;;;;;;16.48;100.00;101285.22;5009308;28;20042;-53
2022/10/10 00:27:29;;;;;;;10.77;5.25;;;;;;;16.72;100.00;101279.97;5005751;28;20049;-58
2022/10/10 00:29:54;;;;;;;11.03;5.63;;;;;;;16.95;100.00;101283.84;5008587;28;20038;-48
2022/10/10 00:32:20;;;;;;;9.23;5.37;;;;;;;16.33;100.00;101284.75;5002383;28;20257;-47
2022/10/10 00:34:45;;;;;;;11.93;5.57;;;;;;;16.88;100.00;101283.13;5000503;28;20062;-50
2022/10/10 00:37:11;;;;;;;17.70;5.70;;;;;;;16.97;100.00;101286.34;5010434;28;20053;-53
2022/10/10 00:39:36;;;;;;;11.50;5.57;;;;;;;16.77;100.00;101277.41;5006473;28;20349;-52
2022/10/10 00:42:02;;;;;;;9.47;5.53;;;;;;;16.71;100.00;101277.50;5007617;28;20038;-49
2022/10/10 00:44:28;;;;;;;11.10;5.30;;;;;;;16.63;100.00;101274.06;5010140;28;20269;-48
2022/10/10 00:46:53;;;;;;;10.73;5.25;;;;;;;16.71;100.00;101272.94;5010775;28;20076;-50
2022/10/10 00:49:23;;;;;;;11.80;5.50;;;;;;;16.60;100.00;101268.25;4998384;28;20058;-51
2022/10/10 00:51:52;;;;;;;9.45;5.80;;;;;;;16.81;100.00;101271.56;5007132;28;20043;-50
2022/10/10 00:54:20;;;;;;;10.82;5.47;;;;;;;16.58;100.00;101268.50;5001993;28;20034;-52
2022/10/10 00:56:53;;;;;;;12.43;5.32;;;;;;;16.56;100.00;101265.22;4999483;28;20068;-52
2022/10/10 00:59:19;;;;;;;12.65;6.35;;;;;;;16.89;100.00;101261.28;5011566;28;20039;-52
2022/10/10 01:01:46;;;;;;;12.40;5.22;;;;;;;17.01;100.00;101261.34;5002747;28;20041;-53
2022/10/10 01:04:37;;;;;;;9.55;5.35;;;;;;;16.96;100.00;101260.38;5015827;28;20034;-51
2022/10/10 01:07:07;;;;;;;9.70;5.22;;;;;;;16.98;100.00;101256.41;5003677;28;20042;-55
2022/10/10 01:09:36;;;;;;;12.18;5.25;;;;;;;16.94;100.00;101252.50;4998933;28;20065;-52
2022/10/10 01:12:19;;;;;;;11.45;5.50;;;;;;;16.84;100.00;101260.28;5004747;28;20046;-53
2022/10/10 01:14:48;;;;;;;10.40;5.70;;;;;;;16.71;100.00;101248.63;5004785;28;20076;-52
2022/10/10 01:17:23;;;;;;;14.93;5.60;;;;;;;16.41;100.00;101244.00;5010621;28;20038;-53
2022/10/10 01:20:03;;;;;;;9.35;5.07;;;;;;;16.47;100.00;101247.66;5003014;28;20094;-51
2022/10/10 01:22:42;;;;;;;8.90;5.43;;;;;;;16.67;100.00;101243.91;5000857;28;20031;-52
2022/10/10 01:25:26;;;;;;;11.95;6.05;;;;;;;16.45;100.00;101242.50;5005181;28;20062;-51
2022/10/10 01:27:59;;;;;;;11.73;6.15;;;;;;;16.57;100.00;101242.56;5016700;28;20042;-53
2022/10/10 01:30:26;;;;;;;11.35;5.32;;;;;;;16.52;100.00;101247.81;5006588;28;20041;-52
2022/10/10 01:33:05;;;;;;;12.23;5.30;;;;;;;16.45;100.00;101250.59;5006927;28;20118;-53
2022/10/10 01:35:45;;;;;;;11.95;5.30;;;;;;;16.32;100.00;101246.16;5005635;28;20057;-51
2022/10/10 01:38:49;;;;;;;18.85;6.30;;;;;;;16.33;100.00;101237.00;4998296;28;20046;-52
2022/10/10 01:41:26;;;;;;;12.75;6.18;;;;;;;16.29;100.00;101235.81;5001307;28;20035;-52
2022/10/10 01:43:56;;;;;;;13.98;5.97;;;;;;;16.28;100.00;101236.03;4992814;28;20038;-51
2022/10/10 01:46:22;;;;;;;11.00;5.70;;;;;;;16.28;100.00;101234.16;5004298;28;20042;-51
2022/10/10 01:48:51;;;;;;;11.55;5.22;;;;;;;16.11;100.00;101225.81;5003264;28;20037;-51
2022/10/10 01:51:38;;;;;;;8.75;5.25;;;;;;;16.25;100.00;101225.69;5003128;28;20039;-51
2022/10/10 01:54:23;;;;;;;;;;;;;;;16.05;100.00;101232.09;5005955;28;20026;-51
2022/10/10 01:57:07;;;;;;;14.27;6.53;;;;;;;16.26;100.00;101219.25;4996671;28;19914;-49
2022/10/10 01:59:59;;;;;;;15.85;6.00;;;;;;;16.30;100.00;101223.13;5001351;28;20045;-53
2022/10/10 02:02:57;;;;;;;11.85;5.85;;;;;;;16.14;100.00;101214.56;5001341;28;20049;-53
2022/10/10 02:05:38;;;;;;;15.52;5.35;;;;;;;16.40;100.00;101212.66;4978933;28;20046;-49
2022/10/10 02:08:08;;;;;;;16.13;5.80;;;;;;;16.16;100.00;101204.41;5001347;28;20057;-48
2022/10/10 02:10:42;;;;;;;9.98;5.45;;;;;;;16.46;100.00;101203.66;5007307;28;20102;-48
2022/10/10 02:13:10;;;;;;;14.38;5.57;;;;;;;16.45;100.00;101198.47;5003433;28;20030;-49
2022/10/10 02:15:47;;;;;;;14.52;5.60;;;;;;;16.29;100.00;101202.59;4999885;28;20026;-49
2022/10/10 02:18:17;;;;;;;12.40;6.68;;;;;;;16.51;100.00;101202.13;5004899;28;20036;-52
2022/10/10 02:20:44;;;;;;;10.98;5.68;;;;;;;16.23;100.00;101198.91;4994572;28;20031;-56
2022/10/10 02:23:13;;;;;;;11.10;5.60;;;;;;;16.29;100.00;101194.50;5011625;28;20094;-53
2022/10/10 02:25:41;;;;;;;14.60;5.45;;;;;;;16.07;100.00;101191.44;5001184;28;20038;-48
2022/10/10 02:28:16;;;;;;;13.40;6.43;;;;;;;15.96;100.00;101191.09;4998370;28;20035;-54
2022/10/10 02:30:45;;;;;;;9.73;6.20;;;;;;;15.63;100.00;101186.81;5004781;28;20046;-54
2022/10/10 02:33:15;;;;;;;15.48;6.72;;;;;;;15.70;100.00;101184.09;5009865;28;20031;-57
2022/10/10 02:35:44;;;;;;;8.35;5.95;;;;;;;15.87;100.00;101181.63;4994465;28;20039;-55
2022/10/10 02:38:13;;;;;;;12.43;6.20;;;;;;;15.72;100.00;101185.50;5007710;28;20027;-55
2022/10/10 02:40:41;;;;;;;13.90;6.38;;;;;;;15.51;100.00;101183.19;5001534;28;20103;-52
2022/10/10 02:43:09;;;;;;;16.10;6.45;;;;;;;15.49;100.00;101172.63;4999115;28;20063;-52
2022/10/10 02:45:36;;;;;;;11.73;5.65;;;;;;;15.80;100.00;101170.91;4996790;28;20066;-54
2022/10/10 02:48:02;;;;;;;14.40;6.45;;;;;;;15.28;100.00;101171.13;5000380;28;20096;-55
2022/10/10 02:50:30;;;;;;;18.50;7.15;;;;;;;15.31;100.00;101163.44;5011619;28;20040;-55
2022/10/10 02:52:56;;;;;;;13.90;6.72;;;;;;;15.28;100.00;101165.75;5006749;28;20094;-55
2022/10/10 02:55:22;;;;;;;13.95;6.97;;;;;;;15.32;100.00;101170.47;5005047;28;20039;-55
2022/10/10 02:57:48;;;;;;;14.80;7.00;;;;;;;15.35;100.00;101158.44;4997241;28;20082;-55
2022/10/10 03:00:14;;;;;;;13.63;7.50;;;;;;;15.48;100.00;101162.91;5005105;28;20027;-56
2022/10/10 03:02:40;;;;;;;15.27;6.88;;;;;;;15.31;100.00;101163.44;5004487;28;20288;-55
2022/10/10 03:05:06;;;;;;;16.52;6.95;;;;;;;15.33;100.00;101147.88;5007868;28;20038;-56
2022/10/10 03:07:32;;;;;;;14.75;6.78;;;;;;;15.28;100.00;101146.88;5009609;28;20028;-48
2022/10/10 03:09:58;;;;;;;17.30;6.57;;;;;;;15.49;100.00;101149.19;5008470;28;20121;-47
2022/10/10 03:12:24;;;;;;;10.97;6.33;;;;;;;15.27;100.00;101154.16;5014852;28;20034;-49
2022/10/10 03:14:49;;;;;;;14.97;6.87;;;;;;;15.17;100.00;101151.09;4998958;28;20035;-52
2022/10/10 03:17:15;;;;;;;12.48;7.10;;;;;;;15.57;100.00;101148.09;4998061;28;20045;-49
2022/10/10 03:19:40;;;;;;;13.15;6.25;;;;;;;15.28;100.00;101146.88;5011637;28;20099;-49
2022/10/10 03:22:06;;;;;;;12.10;6.57;;;;;;;14.93;100.00;101150.84;5006859;28;20054;-50
2022/10/10 03:24:31;;;;;;;18.07;7.20;;;;;;;15.07;100.00;101151.59;5007937;28;20039;-53
2022/10/10 03:26:57;;;;;;;13.65;7.25;;;;;;;15.40;100.00;101145.13;5007363;28;20042;-52
2022/10/10 03:29:22;;;;;;;12.37;6.77;;;;;;;15.11;100.00;101154.69;5010271;28;20042;-53
2022/10/10 03:31:48;;;;;;;16.70;6.97;;;;;;;14.85;100.00;101151.13;5014924;28;20094;-49
2022/10/10 03:34:13;;;;;;;13.32;6.85;;;;;;;14.63;100.00;101154.91;5005946;28;20030;-52
2022/10/10 03:36:39;;;;;;;11.77;6.82;;;;;;;15.14;100.00;101151.53;5009470;28;20045;-52
2022/10/10 03:39:06;;;;;;;13.53;6.90;;;;;;;14.66;100.00;101145.59;4999973;28;20081;-47
2022/10/10 03:41:32;;;;;;;18.75;7.57;;;;;;;14.67;100.00;101152.63;5004594;28;20293;-52
2022/10/10 03:43:58;;;;;;;19.20;7.60;;;;;;;14.61;100.00;101148.13;5002906;28;20062;-52
2022/10/10 03:46:23;;;;;;;16.97;7.40;;;;;;;14.85;100.00;101149.25;4998856;28;20043;-51
2022/10/10 03:48:48;;;;;;;13.70;7.07;;;;;;;15.15;100.00;101153.19;5009185;28;20309;-52
2022/10/10 03:51:14;;;;;;;11.15;6.95;;;;;;;14.89;100.00;101147.78;5001934;28;20118;-52
2022/10/10 03:53:40;;;;;;;14.98;6.93;;;;;;;14.46;100.00;101146.50;5008071;28;20042;-52
2022/10/10 03:56:05;;;;;;;17.03;7.93;;;;;;;14.62;100.00;101147.88;5001291;28;20034;-50
2022/10/10 03:58:31;;;;;;;15.88;6.68;;;;;;;14.56;100.00;101145.25;5010954;28;20049;-48
2022/10/10 04:00:59;;;;;;;11.47;7.43;;;;;;;14.93;100.00;101158.13;5014529;28;20055;-54
2022/10/10 04:03:25;;;;;;;18.42;7.15;;;;;;;15.38;100.00;101158.00;5002960;28;20272;-48
2022/10/10 04:05:51;;;;;;;14.93;6.97;;;;;;;14.61;100.00;101148.13;5015432;28;20097;-48
2022/10/10 04:08:17;;;;;;;15.45;8.02;;;;;;;15.10;100.00;101144.94;5000984;28;20039;-51
2022/10/10 04:10:47;;;;;;;11.18;7.35;;;;;;;15.02;100.00;101140.66;5012661;28;20039;-53
2022/10/10 04:13:13;;;;;;;18.30;7.53;;;;;;;15.02;100.00;101135.25;5004759;28;20030;-49
2022/10/10 04:15:38;;;;;;;13.17;7.60;;;;;;;14.99;100.00;101143.78;5009446;28;20159;-51
2022/10/10 04:18:04;;;;;;;13.15;7.07;;;;;;;14.64;100.00;101145.00;5001480;28;20058;-50
2022/10/10 04:20:30;;;;;;;12.27;7.63;;;;;;;15.02;100.00;101137.97;4997975;28;20044;-50
2022/10/10 04:22:56;;;;;;;18.25;8.07;;;;;;;15.02;100.00;101138.78;5001375;28;20031;-51
2022/10/10 04:25:21;;;;;;;14.30;8.43;;;;;;;15.04;100.00;101142.09;5012225;28;20026;-50
2022/10/10 04:27:47;;;;;;;11.47;6.87;;;;;;;15.23;100.00;101136.78;5010194;28;20053;-53
2022/10/10 04:30:12;;;;;;;13.90;7.13;;;;;;;14.99;100.00;101133.84;5004005;28;20116;-54
2022/10/10 04:32:38;;;;;;;12.70;6.90;;;;;;;15.15;100.00;101139.72;5009475;28;20277;-49
2022/10/10 04:35:04;;;;;;;11.93;7.13;;;;;;;14.80;100.00;101142.88;5013175;28;20035;-50
2022/10/10 04:37:30;;;;;;;16.13;7.55;;;;;;;14.76;100.00;101135.22;5003388;28;20034;-51
2022/10/10 04:39:55;;;;;;;15.50;9.20;;;;;;;14.57;100.00;101142.31;5013511;28;20049;-50
2022/10/10 04:42:21;;;;;;;17.47;7.70;;;;;;;14.89;100.00;101138.88;5016459;28;20279;-50
2022/10/10 04:44:46;;;;;;;14.07;7.73;;;;;;;14.55;100.00;101140.91;5005111;28;20062;-50
2022/10/10 04:47:12;;;;;;;13.83;7.83;;;;;;;14.66;100.00;101134.81;5009280;28;20108;-53
2022/10/10 04:49:40;;;;;;;;;;;;;;;14.33;100.00;101135.81;4998326;28;20055;-54
2022/10/10 04:52:10;;;;;;;15.60;7.88;;;;;;;14.53;100.00;101137.56;5011713;28;19921;-47
2022/10/10 04:54:36;;;;;;;13.57;8.10;;;;;;;14.34;100.00;101135.59;5006073;28;20049;-51
2022/10/10 04:57:01;;;;;;;17.30;8.25;;;;;;;14.42;100.00;101139.91;5004307;28;20039;-51
2022/10/10 04:59:27;;;;;;;16.08;7.80;;;;;;;14.03;100.00;101147.06;5010429;28;20046;-51
2022/10/10 05:01:53;;;;;;;15.60;8.20;;;;;;;13.91;100.00;101138.84;5004972;28;20034;-52
2022/10/10 05:04:18;;;;;;;11.40;7.03;;;;;;;13.91;100.00;101139.66;5003151;28;20115;-50
2022/10/10 05:06:43;;;;;;;15.10;8.10;;;;;;;13.90;100.00;101138.03;5007363;28;20027;-49
2022/10/10 05:09:09;;;;;;;16.63;8.60;;;;;;;14.10;100.00;101137.16;5009533;28;20113;-51
2022/10/10 05:11:35;;;;;;;13.87;7.70;;;;;;;14.41;100.00;101135.56;5000015;28;20068;-52
2022/10/10 05:14:01;;;;;;;19.47;9.47;;;;;;;14.48;100.00;101128.28;5011685;28;20295;-49
2022/10/10 05:16:28;;;;;;;16.58;7.93;;;;;;;14.51;100.00;101135.13;5001337;28;20035;-48
2022/10/10 05:18:53;;;;;;;16.15;7.53;;;;;;;14.61;100.00;101126.59;5011559;28;20064;-47
2022/10/10 05:21:19;;;;;;;15.13;8.73;;;;;;;14.37;100.00;101120.91;5013283;28;20026;-50
2022/10/10 05:23:44;;;;;;;19.33;8.37;;;;;;;14.41;100.00;101122.13;5002359;28;20060;-53
2022/10/10 05:26:10;;;;;;;21.23;8.03;;;;;;;14.58;100.00;101127.00;5007979;28;20059;-49
2022/10/10 05:28:36;;;;;;;18.47;8.80;;;;;;;14.19;100.00;101130.47;5003961;28;20283;-52
2022/10/10 05:31:03;;;;;;;18.60;8.18;;;;;;;14.38;100.00;101127.09;5005670;28;20065;-53
2022/10/10 05:33:29;;;;;;;16.80;8.07;;;;;;;14.37;100.00;101123.59;5016177;28;20043;-53
2022/10/10 05:36:09;;;;;;;19.40;8.63;;;;;;;14.19;100.00;101135.88;5005482;28;20062;-48
2022/10/10 05:38:36;;;;;;;17.52;8.48;;;;;;;14.11;100.00;101135.28;5002443;28;20119;-52
2022/10/10 05:41:02;;;;;;;15.60;8.32;;;;;;;14.25;100.00;101128.81;5009826;28;20057;-52
2022/10/10 05:43:28;;;;;;;14.85;8.02;;;;;;;14.10;100.00;101139.84;5006937;28;20035;-47
2022/10/10 05:45:54;;;;;;;17.00;8.88;;;;;;;14.17;100.00;101132.56;5002689;28;20035;-49
2022/10/10 05:48:20;;;;;;;17.08;7.97;;;;;;;14.14;100.00;101141.06;4998066;28;20100;-49
2022/10/10 05:50:52;;;;;;;20.27;8.40;;;;;;;14.05;100.00;101135.09;5008833;28;20116;-50
2022/10/10 05:53:18;;;;;;;18.38;8.45;;;;;;;14.07;100.00;101139.41;5000996;28;20034;-50
2022/10/10 05:55:43;;;;;;;24.07;8.80;;;;;;;14.00;100.00;101128.69;5010586;28;20045;-52
2022/10/10 05:58:12;;;;;;;18.35;8.50;;;;;;;14.15;100.00;101128.41;4997630;28;20031;-55
2022/10/10 06:00:39;;;;;;;15.52;8.02;;;;;;;14.32;100.00;101134.97;4995960;28;20056;-50
2022/10/10 06:03:05;;;;;;;;;;;;;;;14.02;100.00;101142.72;5003373;28;20043;-53
2022/10/10 06:05:30;;;;;;;14.03;7.90;;;;;;;14.15;100.00;101149.94;4999696;28;19914;-51
2022/10/10 06:07:57;;;;;;;13.48;7.47;;;;;;;14.29;100.00;101148.88;5006712;28;20042;-48
2022/10/10 06:10:22;;;;;;;18.80;9.50;;;;;;;14.46;100.00;101133.06;4999352;28;20064;-50
2022/10/10 06:12:48;;;;;;;18.02;9.23;;;;;;;14.01;100.00;101149.16;5012480;28;20131;-54
2022/10/10 06:15:13;;;;;;;19.80;9.33;;;;;;;14.30;100.00;101155.06;5004357;28;20039;-53
2022/10/10 06:17:38;;;;;;;22.13;9.03;;;;;;;14.16;100.00;101147.03;5003935;28;20033;-49
2022/10/10 06:20:04;;;;;;;16.77;9.00;;;;;;;14.00;100.00;101147.50;5006621;28;20031;-49
2022/10/10 06:22:30;;;;;;;16.52;8.85;;;;;;;14.26;100.00;101143.91;5007950;28;20535;-51
2022/10/10 06:24:55;;;;;;;16.93;8.37;;;;;;;14.14;100.00;101150.97;4998418;28;20030;-53
2022/10/10 06:27:21;;;;;;;18.43;8.50;;;;;;;14.30;100.00;101141.59;5008803;28;20126;-54
2022/10/10 06:29:46;;;;;;;22.73;9.17;;;;;;;14.28;100.00;101149.06;5006843;28;20307;-51
2022/10/10 06:32:12;;;;;;;22.37;8.40;;;;;;;14.61;100.00;101142.72;4999496;28;20084;-49
2022/10/10 06:34:37;;;;;;;21.02;8.85;;;;;;;14.59;100.00;101158.28;5000188;28;20042;-53
2022/10/10 06:37:03;;;;;;;19.13;9.10;;;;;;;14.54;100.00;101156.22;5011742;28;20066;-50
2022/10/10 06:39:28;;;;;;;14.57;8.83;;;;;;;14.44;100.00;101159.34;5001480;28;20050;-50
2022/10/10 06:41:54;;;;;;;16.27;8.15;;;;;;;14.86;100.00;101164.34;5007522;28;20062;-52
2022/10/10 06:44:19;;;;;;;15.97;8.80;;;;;;;14.63;100.00;101164.88;5002822;28;20066;-51
2022/10/10 06:46:45;;;;;;;20.23;7.90;;;;;;;15.01;100.00;101172.16;4997756;28;20039;-52
2022/10/10 06:49:10;;;;;;;18.70;8.30;;;;;;;15.08;100.00;101173.97;4997392;28;20299;-53
2022/10/10 06:51:37;;;;;;;17.48;7.82;;;;;;;14.80;100.00;101162.53;5001837;28;20027;-52
2022/10/10 06:54:03;;;;;;;23.83;7.80;;;;;;;15.23;100.00;101166.41;5008475;28;20055;-53
2022/10/10 06:56:28;;;;;;;19.48;8.40;;;;;;;15.20;100.00;101166.81;5008525;28;20034;-50
2022/10/10 06:58:54;;;;;;;24.40;8.38;;;;;;;15.23;100.00;101163.72;5005875;28;20474;-49
2022/10/10 07:01:22;;;;;;;17.10;8.20;;;;;;;15.37;100.00;101164.44;5008131;28;20034;-52
2022/10/10 07:03:48;;;;;;;17.08;8.52;;;;;;;15.25;100.00;101168.88;5006874;28;20048;-50
2022/10/10 07:06:13;;;;;;;15.85;6.85;;;;;;;15.39;100.00;101172.28;4999739;28;20042;-51
2022/10/10 07:08:39;;;;;;;18.97;8.07;;;;;;;15.37;100.00;101167.13;5010059;28;20039;-49
2022/10/10 07:11:06;;;;;;;14.93;7.55;;;;;;;15.09;100.00;101165.66;5015555;28;20034;-49
2022/10/10 07:13:36;;;;;;;14.90;8.45;;;;;;;15.27;100.00;101172.19;5000451;28;20030;-52
2022/10/10 07:16:03;;;;;;;15.23;8.07;;;;;;;15.42;100.00;101174.53;5012722;28;20043;-50
2022/10/10 07:18:30;;;;;;;15.20;7.38;;;;;;;15.74;100.00;101169.09;5003281;28;20057;-50
2022/10/10 07:20:58;;;;;;;15.82;7.57;;;;;;;15.72;100.00;101171.19;5018272;28;20061;-51
2022/10/10 07:23:24;;;;;;;16.77;7.70;;;;;;;16.05;100.00;101173.59;5003117;28;20026;-47
2022/10/10 07:25:51;;;;;;;15.70;8.27;;;;;;;16.30;100.00;101179.94;5001782;28;20039;-50
2022/10/10 07:28:16;;;;;;;16.05;9.20;;;;;;;16.31;100.00;101181.59;5007527;28;20030;-51
2022/10/10 07:30:43;;;;;;;15.93;9.30;;;;;;;16.36;100.00;101183.63;5003787;28;20043;-53
2022/10/10 07:33:11;;;;;;;23.03;9.73;;;;;;;16.99;100.00;101181.59;5003489;28;20102;-50
2022/10/10 07:35:36;;;;;;;13.63;8.73;;;;;;;16.94;100.00;101184.97;5017985;28;20775;-49
2022/10/10 07:38:02;;;;;;;16.70;7.38;;;;;;;17.10;100.00;101193.50;5010466;28;20261;-52
2022/10/10 07:40:28;;;;;;;13.93;6.47;;;;;;;17.04;100.00;101181.72;5003874;28;20061;-53
2022/10/10 07:42:53;;;;;;;12.07;6.33;;;;;;;17.32;100.00;101197.31;5010082;28;20046;-54
2022/10/10 07:45:19;;;;;;;14.07;7.20;;;;;;;17.55;100.00;101195.72;5004486;28;20277;-50
2022/10/10 07:47:45;;;;;;;14.00;6.13;;;;;;;17.42;100.00;101202.16;4999958;28;20058;-51
2022/10/10 07:50:11;;;;;;;21.85;6.20;;;;;;;17.71;100.00;101199.59;5009350;28;20039;-50
2022/10/10 07:52:37;;;;;;;;;;;;;;;18.18;100.00;101206.88;5006282;28;20026;-53
2022/10/10 07:55:04;;;;;;;12.40;6.00;;;;;;;17.73;100.00;101202.88;4999827;28;19920;-54
2022/10/10 07:57:33;;;;;;;11.73;5.80;;;;;;;17.32;100.00;101210.84;5008779;28;20264;-52
2022/10/10 08:00:05;;;;;;;14.60;7.07;;;;;;;17.31;100.00;101208.34;5001801;28;20257;-52
2022/10/10 08:02:37;;;;;;;15.53;6.47;;;;;;;17.56;100.00;101210.88;5015915;28;20280;-52
2022/10/10 08:05:03;;;;;;;13.65;7.00;;;;;;;17.76;100.00;101223.22;5003293;28;20261;-53
2022/10/10 08:07:29;;;;;;;21.45;7.18;;;;;;;17.53;100.00;101214.06;4999020;28;20099;-52
2022/10/10 08:09:55;;;;;;;18.52;5.88;;;;;;;17.50;100.00;101214.50;5009805;28;20054;-52
2022/10/10 08:12:20;;;;;;;16.27;7.20;;;;;;;17.99;100.00;101219.72;5002606;28;20065;-49
2022/10/10 08:14:45;;;;;;;9.07;6.40;;;;;;;17.81;100.00;101217.13;5010780;28;20283;-54
2022/10/10 08:17:11;;;;;;;14.33;6.57;;;;;;;17.94;100.00;101222.31;5007530;28;20039;-50
2022/10/10 08:19:37;;;;;;;11.98;6.78;;;;;;;18.17;100.00;101223.38;5003417;28;20039;-55
2022/10/10 08:22:02;;;;;;;14.10;7.13;;;;;;;18.29;100.00;101221.47;5005829;28;20035;-50
2022/10/10 08:24:27;;;;;;;13.40;6.57;;;;;;;17.92;100.00;101219.81;5007778;28;20075;-54
2022/10/10 08:26:53;;;;;;;17.23;7.57;;;;;;;18.36;100.00;101217.81;5000934;28;20069;-53
2022/10/10 08:29:18;;;;;;;14.50;6.70;;;;;;;18.37;100.00;101222.97;5011970;28;20102;-51
2022/10/10 08:31:44;;;;;;;16.20;7.38;;;;;;;18.59;100.00;101228.59;5006575;28;20038;-49
2022/10/10 08:34:10;;;;;;;10.70;6.18;;;;;;;19.44;100.00;101217.16;4999696;28;20110;-52
2022/10/10 08:36:36;;;;;;;13.68;6.70;;;;;;;19.65;100.00;101224.81;5004078;28;20031;-55
2022/10/10 08:39:02;;;;;;;15.10;6.68;;;;;;;20.68;100.00;101225.41;5006597;28;20043;-54
2022/10/10 08:41:59;;;;;;;13.85;6.00;;;;;;;21.52;100.00;101228.69;5003738;28;20041;-52
2022/10/10 08:44:36;;;;;;;12.57;5.63;;;;;;;21.57;100.00;101233.38;4993251;28;20084;-51
2022/10/10 08:47:09;;;;;;;12.33;5.37;;;;;;;21.24;100.00;101233.38;5002543;28;20328;-50
2022/10/10 08:49:56;;;;;;;9.83;5.07;;;;;;;21.32;100.00;101238.31;5012403;28;20352;-54
2022/10/10 08:52:35;;;;;;;9.10;4.75;;;;;;;21.94;100.00;101242.63;5006277;28;20039;-55
2022/10/10 08:55:06;;;;;;;16.97;5.70;;;;;;;22.16;100.00;101235.16;4998524;28;20042;-53
2022/10/10 08:57:40;;;;;;;14.33;5.10;;;;;;;22.88;100.00;101250.19;5003950;28;20027;-54
2022/10/10 09:00:12;;;;;;;12.43;4.97;;;;;;;23.61;100.00;101249.19;4998517;28;20026;-50
2022/10/10 09:02:51;;;;;;;11.50;5.00;;;;;;;24.14;94.66;101256.22;5008842;28;20041;-51
2022/10/10 09:05:20;;;;;;;17.73;4.70;;;;;;;24.80;88.77;101261.75;4998313;28;20065;-51
2022/10/10 09:08:04;;;;;;;10.40;5.00;;;;;;;23.57;96.51;101264.47;5013769;28;20038;-51
2022/10/10 09:11:01;;;;;;;16.00;5.53;;;;;;;23.86;93.52;101252.16;5006144;28;20094;-53
2022/10/10 09:13:35;;;;;;;13.60;5.00;;;;;;;23.95;92.10;101260.59;4982293;28;20073;-53
2022/10/10 09:16:32;;;;;;;12.97;4.73;;;;;;;23.79;91.46;101257.91;5005907;28;20036;-50
2022/10/10 09:19:00;;;;;;;16.65;5.07;;;;;;;23.93;92.14;101260.91;5003651;28;20035;-51
2022/10/10 09:21:35;;;;;;;14.73;5.00;;;;;;;24.59;89.97;101271.91;5011865;28;20039;-53
2022/10/10 09:24:09;;;;;;;15.77;5.63;;;;;;;24.30;91.36;101275.31;5004514;28;20031;-54
2022/10/10 09:26:43;;;;;;;9.63;4.43;;;;;;;23.14;99.13;101281.03;5000353;28;20034;-53
2022/10/10 09:29:27;;;;;;;13.83;5.43;;;;;;;22.72;100.00;101288.28;5005780;28;20034;-54
2022/10/10 09:31:59;;;;;;;13.13;5.13;;;;;;;22.97;100.00;101273.09;5001093;28;20039;-51
2022/10/10 09:34:37;;;;;;;20.97;5.40;;;;;;;22.54;100.00;101278.69;5004219;28;20051;-53
2022/10/10 09:37:11;;;;;;;12.00;5.00;;;;;;;22.55;100.00;101268.59;5003311;28;20028;-54
2022/10/10 09:39:44;;;;;;;14.53;5.70;;;;;;;22.44;100.00;101267.69;5005506;28;20034;-53
2022/10/10 09:42:19;;;;;;;15.43;5.73;;;;;;;22.06;100.00;101267.75;4999154;28;20035;-54
2022/10/10 09:44:45;;;;;;;10.30;4.88;;;;;;;22.07;100.00;101283.00;4999194;28;20052;-53
2022/10/10 09:47:13;;;;;;;15.45;5.50;;;;;;;22.35;100.00;101270.94;5005974;28;20114;-53
2022/10/10 09:49:40;;;;;;;16.50;5.43;;;;;;;22.80;100.00;101267.03;5009884;28;20058;-48
2022/10/10 09:52:28;;;;;;;10.05;5.50;;;;;;;22.37;100.00;101273.38;5007606;28;20034;-53
2022/10/10 09:55:01;;;;;;;11.57;5.10;;;;;;;21.87;100.00;101267.38;5004601;28;20030;-52
2022/10/10 09:57:34;;;;;;;11.90;5.23;;;;;;;22.23;100.00;101274.94;5004670;28;21528;-52
2022/10/10 10:00:24;;;;;;;13.20;5.37;;;;;;;22.26;100.00;101288.03;5001488;28;20038;-55
2022/10/10 10:03:12;;;;;;;15.03;5.50;;;;;;;22.07;100.00;101283.00;5004928;28;20031;-55
2022/10/10 10:05:40;;;;;;;13.00;5.20;;;;;;;22.24;100.00;101290.19;5003729;28;20084;-52
2022/10/10 10:08:17;;;;;;;10.87;4.77;;;;;;;21.94;100.00;101286.19;4998349;28;20054;-53
2022/10/10 10:10:43;;;;;;;11.90;5.47;;;;;;;22.24;100.00;101291.00;5007767;28;20052;-53
2022/10/10 10:13:18;;;;;;;15.40;5.55;;;;;;;21.98;100.00;101285.41;5002393;28;20094;-54
2022/10/10 10:15:49;;;;;;;11.93;5.00;;;;;;;21.86;100.00;101285.59;5004449;28;20054;-53
2022/10/10 10:18:15;;;;;;;10.90;4.50;;;;;;;22.00;100.00;101288.69;5008173;28;20082;-51
2022/10/10 10:20:42;;;;;;;13.80;4.70;;;;;;;22.22;100.00;101285.00;5000220;28;20034;-54
2022/10/10 10:23:31;;;;;;;12.80;5.17;;;;;;;22.36;100.00;101290.81;5006436;28;20091;-55
2022/10/10 10:26:05;;;;;;;9.50;5.50;;;;;;;22.98;100.00;101307.44;5005492;28;20030;-53
2022/10/10 10:28:38;;;;;;;13.97;5.53;;;;;;;23.74;100.00;101310.59;4997781;28;20076;-55
2022/10/10 10:31:04;;;;;;;13.30;5.00;;;;;;;24.15;100.00;101317.97;5010659;28;20054;-53
2022/10/10 10:33:36;;;;;;;11.97;4.53;;;;;;;25.84;90.07;101326.72;5006724;28;20024;-57
2022/10/10 10:36:20;;;;;;;12.33;4.90;;;;;;;25.38;88.02;101320.47;5000274;28;20042;-54
2022/10/10 10:38:58;;;;;;;16.43;4.53;;;;;;;25.02;89.58;101323.44;5006307;28;20030;-52
2022/10/10 10:41:41;;;;;;;14.37;4.77;;;;;;;25.94;86.19;101334.84;4999834;28;20049;-54
2022/10/10 10:44:30;;;;;;;13.80;4.20;;;;;;;26.64;80.81;101332.78;5004124;28;20101;-55
2022/10/10 10:47:11;;;;;;;9.57;4.07;;;;;;;26.47;81.38;101334.06;5007391;28;20038;-51
2022/10/10 10:50:05;;;;;;;14.27;4.33;;;;;;;25.98;84.49;101333.19;4998232;28;20042;-54
2022/10/10 10:52:34;;;;;;;17.20;4.63;;;;;;;26.96;79.84;101339.53;5003560;28;20104;-54
2022/10/10 10:55:31;;;;;;;11.77;4.57;;;;;;;26.84;79.12;101339.13;5001117;28;20038;-52
2022/10/10 10:58:14;;;;;;;15.80;4.27;;;;;;;27.01;77.22;101341.41;5006089;28;20058;-55
2022/10/10 11:00:51;;;;;;;11.10;4.43;;;;;;;26.56;77.83;101337.00;5003126;28;20032;-53
2022/10/10 11:03:41;;;;;;;12.93;4.40;;;;;;;27.79;74.33;101348.50;5005950;28;20043;-55
2022/10/10 11:06:27;;;;;;;8.17;3.80;;;;;;;26.62;76.88;101343.25;5007489;28;20042;-53
2022/10/10 11:09:13;;;;;;;10.37;4.13;;;;;;;27.18;75.77;101352.69;5012732;28;20039;-51
2022/10/10 11:11:57;;;;;;;13.27;5.15;;;;;;;27.53;74.08;101363.47;5009532;28;20057;-53
2022/10/10 11:14:38;;;;;;;14.30;4.50;;;;;;;27.38;74.50;101369.16;5003658;28;20051;-56
2022/10/10 11:17:18;;;;;;;15.30;5.07;;;;;;;27.32;75.53;101368.41;5013062;28;20023;-56
2022/10/10 11:19:59;;;;;;;11.03;4.50;;;;;;;26.19;82.84;101360.44;5005990;28;20046;-55
2022/10/10 11:22:30;;;;;;;14.80;4.70;;;;;;;25.78;86.71;101378.00;5007235;28;20042;-56
2022/10/10 11:25:05;;;;;;;13.60;4.50;;;;;;;24.93;92.40;101372.47;5003282;28;20026;-54